sensor_id;sensor_type;location;lat;lon;timestamp;pressure;altitude;pressure_sealevel;temperature;humidity
7182;BME280;3632;42.724;23.298;2024-03-07T00:01:39;95190.41;;;9.98;100.00
7182;BME280;3632;42.724;23.298;2024-03-07T00:04:06;95197.94;;;10.22;100.00
7182;BME280;3632;42.724;23.298;2024-03-07T00:06:34;95185.91;;;9.91;100.00
7182;BME280;3632;42.724;23.298;2024-03-07T00:09:01;95195.97;;;10.03;100.00
7182;BME280;3632;42.724;23.298;2024-03-07T00:11:28;95187.59;;;10.24;100.00
7182;BME280;3632;42.724;23.298;2024-03-07T00:13:55;95143.91;;;9.96;100.00
7182;BME280;3632;42.724;23.298;2024-03-07T00:16:22;95181.94;;;10.09;100.00
7182;BME280;3632;42.724;23.298;2024-03-07T00:18:49;95060.75;;;9.21;100.00
7182;BME280;3632;42.724;23.298;2024-03-07T00:21:15;95175.28;;;9.75;100.00
7182;BME280;3632;42.724;23.298;2024-03-07T00:23:43;94959.00;;;8.44;100.00
7182;BME280;3632;42.724;23.298;2024-03-07T00:26:10;95149.63;;;9.67;100.00
7182;BME280;3632;42.724;23.298;2024-03-07T00:28:37;95163.69;;;9.93;100.00
7182;BME280;3632;42.724;23.298;2024-03-07T00:31:05;95159.75;;;10.00;100.00
7182;BME280;3632;42.724;23.298;2024-03-07T00:33:34;95152.56;;;10.16;100.00
7182;BME280;3632;42.724;23.298;2024-03-07T00:36:01;95154.13;;;10.28;100.00
7182;BME280;3632;42.724;23.298;2024-03-07T00:38:27;95158.34;;;10.18;100.00
7182;BME280;3632;42.724;23.298;2024-03-07T00:40:55;95158.16;;;9.77;100.00
7182;BME280;3632;42.724;23.298;2024-03-07T00:43:22;95161.25;;;9.80;100.00
7182;BME280;3632;42.724;23.298;2024-03-07T00:45:50;95063.16;;;9.44;100.00
7182;BME280;3632;42.724;23.298;2024-03-07T00:48:17;95164.06;;;9.88;100.00
7182;BME280;3632;42.724;23.298;2024-03-07T00:50:44;95154.19;;;9.95;100.00
7182;BME280;3632;42.724;23.298;2024-03-07T00:53:11;95150.50;;;9.88;100.00
7182;BME280;3632;42.724;23.298;2024-03-07T00:55:37;95148.66;;;9.68;100.00
7182;BME280;3632;42.724;23.298;2024-03-07T00:58:05;95148.66;;;9.68;100.00
7182;BME280;3632;42.724;23.298;2024-03-07T01:00:32;95143.81;;;9.87;100.00
7182;BME280;3632;42.724;23.298;2024-03-07T01:02:59;95142.72;;;10.00;100.00
7182;BME280;3632;42.724;23.298;2024-03-07T01:05:26;95137.97;;;10.07;100.00
7182;BME280;3632;42.724;23.298;2024-03-07T01:07:53;95138.22;;;10.04;100.00
7182;BME280;3632;42.724;23.298;2024-03-07T01:10:21;95138.31;;;10.14;100.00
7182;BME280;3632;42.724;23.298;2024-03-07T01:12:48;95133.56;;;10.20;100.00
7182;BME280;3632;42.724;23.298;2024-03-07T01:15:16;95136.44;;;10.27;100.00
7182;BME280;3632;42.724;23.298;2024-03-07T01:17:43;95077.38;;;9.90;100.00
7182;BME280;3632;42.724;23.298;2024-03-07T01:20:11;95132.13;;;10.27;100.00
7182;BME280;3632;42.724;23.298;2024-03-07T01:22:38;95130.84;;;10.33;100.00
7182;BME280;3632;42.724;23.298;2024-03-07T01:25:05;95128.13;;;10.02;100.00
7182;BME280;3632;42.724;23.298;2024-03-07T01:27:32;95139.47;;;10.09;100.00
7182;BME280;3632;42.724;23.298;2024-03-07T01:29:59;95135.34;;;9.86;100.00
7182;BME280;3632;42.724;23.298;2024-03-07T01:32:28;95135.31;;;9.97;100.00
7182;BME280;3632;42.724;23.298;2024-03-07T01:34:55;95076.03;;;9.63;100.00
7182;BME280;3632;42.724;23.298;2024-03-07T01:37:22;94965.19;;;9.07;100.00
7182;BME280;3632;42.724;23.298;2024-03-07T01:39:49;95120.38;;;10.15;100.00
7182;BME280;3632;42.724;23.298;2024-03-07T01:42:15;95107.75;;;9.71;100.00
7182;BME280;3632;42.724;23.298;2024-03-07T01:44:42;95131.44;;;9.60;100.00
7182;BME280;3632;42.724;23.298;2024-03-07T01:47:09;94920.78;;;8.35;100.00
7182;BME280;3632;42.724;23.298;2024-03-07T01:49:37;95129.66;;;9.94;100.00
7182;BME280;3632;42.724;23.298;2024-03-07T01:52:05;95133.81;;;9.95;100.00
7182;BME280;3632;42.724;23.298;2024-03-07T01:54:32;95137.34;;;9.72;100.00
7182;BME280;3632;42.724;23.298;2024-03-07T01:57:00;95109.38;;;9.60;100.00
7182;BME280;3632;42.724;23.298;2024-03-07T01:59:29;95152.38;;;9.63;100.00
7182;BME280;3632;42.724;23.298;2024-03-07T02:01:58;95147.16;;;9.76;100.00
7182;BME280;3632;42.724;23.298;2024-03-07T02:04:27;95151.25;;;9.56;100.00
7182;BME280;3632;42.724;23.298;2024-03-07T02:06:56;95141.19;;;9.33;100.00
7182;BME280;3632;42.724;23.298;2024-03-07T02:09:24;95138.75;;;9.64;100.00
7182;BME280;3632;42.724;23.298;2024-03-07T02:11:50;95129.25;;;9.55;100.00
7182;BME280;3632;42.724;23.298;2024-03-07T02:14:17;95130.28;;;9.75;100.00
7182;BME280;3632;42.724;23.298;2024-03-07T02:16:43;95131.75;;;9.89;100.00
7182;BME280;3632;42.724;23.298;2024-03-07T02:19:14;95122.31;;;9.80;100.00
7182;BME280;3632;42.724;23.298;2024-03-07T02:21:43;95077.25;;;9.48;100.00
7182;BME280;3632;42.724;23.298;2024-03-07T02:24:09;95114.78;;;9.78;100.00
7182;BME280;3632;42.724;23.298;2024-03-07T02:26:36;95114.94;;;9.54;100.00
7182;BME280;3632;42.724;23.298;2024-03-07T02:29:04;95144.31;;;9.47;100.00
7182;BME280;3632;42.724;23.298;2024-03-07T02:31:31;95067.06;;;9.48;100.00
7182;BME280;3632;42.724;23.298;2024-03-07T02:34:02;95063.25;;;9.54;100.00
7182;BME280;3632;42.724;23.298;2024-03-07T02:36:29;95098.69;;;9.78;100.00
7182;BME280;3632;42.724;23.298;2024-03-07T02:38:57;95131.28;;;9.95;100.00
7182;BME280;3632;42.724;23.298;2024-03-07T02:41:24;95085.66;;;9.71;100.00
7182;BME280;3632;42.724;23.298;2024-03-07T02:43:51;94965.69;;;8.79;100.00
7182;BME280;3632;42.724;23.298;2024-03-07T02:46:18;95145.88;;;9.82;100.00
7182;BME280;3632;42.724;23.298;2024-03-07T02:48:45;95149.59;;;9.78;100.00
7182;BME280;3632;42.724;23.298;2024-03-07T02:51:11;95144.75;;;9.75;100.00
7182;BME280;3632;42.724;23.298;2024-03-07T02:53:38;95105.66;;;9.64;100.00
7182;BME280;3632;42.724;23.298;2024-03-07T02:56:06;94948.94;;;8.54;100.00
7182;BME280;3632;42.724;23.298;2024-03-07T02:58:34;95140.03;;;9.48;100.00
7182;BME280;3632;42.724;23.298;2024-03-07T03:01:02;94998.28;;;8.74;100.00
7182;BME280;3632;42.724;23.298;2024-03-07T03:03:29;95157.81;;;9.92;100.00
7182;BME280;3632;42.724;23.298;2024-03-07T03:05:58;95089.28;;;9.13;100.00
7182;BME280;3632;42.724;23.298;2024-03-07T03:08:25;95148.47;;;9.26;100.00
7182;BME280;3632;42.724;23.298;2024-03-07T03:10:53;95152.63;;;9.49;100.00
7182;BME280;3632;42.724;23.298;2024-03-07T03:13:23;95155.66;;;9.54;100.00
7182;BME280;3632;42.724;23.298;2024-03-07T03:15:50;95157.22;;;9.00;100.00
7182;BME280;3632;42.724;23.298;2024-03-07T03:18:16;95151.41;;;8.76;100.00
7182;BME280;3632;42.724;23.298;2024-03-07T03:20:44;95156.03;;;8.82;100.00
7182;BME280;3632;42.724;23.298;2024-03-07T03:23:13;95089.31;;;8.45;100.00
7182;BME280;3632;42.724;23.298;2024-03-07T03:25:40;95149.31;;;8.69;100.00
7182;BME280;3632;42.724;23.298;2024-03-07T03:28:07;95041.91;;;7.87;100.00
7182;BME280;3632;42.724;23.298;2024-03-07T03:30:37;95159.03;;;8.76;100.00
7182;BME280;3632;42.724;23.298;2024-03-07T03:33:04;95053.72;;;7.99;100.00
7182;BME280;3632;42.724;23.298;2024-03-07T03:35:32;95156.81;;;8.36;100.00
7182;BME280;3632;42.724;23.298;2024-03-07T03:37:59;95169.72;;;9.03;100.00
7182;BME280;3632;42.724;23.298;2024-03-07T03:40:26;95069.75;;;8.23;100.00
7182;BME280;3632;42.724;23.298;2024-03-07T03:42:53;95151.13;;;9.02;100.00
7182;BME280;3632;42.724;23.298;2024-03-07T03:45:20;95149.75;;;9.21;100.00
7182;BME280;3632;42.724;23.298;2024-03-07T03:47:48;95145.44;;;9.21;100.00
7182;BME280;3632;42.724;23.298;2024-03-07T03:50:15;95154.69;;;9.22;100.00
7182;BME280;3632;42.724;23.298;2024-03-07T03:52:43;95137.47;;;9.26;100.00
7182;BME280;3632;42.724;23.298;2024-03-07T03:55:10;95135.53;;;9.18;100.00
7182;BME280;3632;42.724;23.298;2024-03-07T03:57:39;95155.72;;;9.08;100.00
7182;BME280;3632;42.724;23.298;2024-03-07T04:00:09;95044.63;;;8.42;100.00
7182;BME280;3632;42.724;23.298;2024-03-07T04:02:38;95133.06;;;9.16;100.00
7182;BME280;3632;42.724;23.298;2024-03-07T04:05:07;95137.00;;;9.09;100.00
7182;BME280;3632;42.724;23.298;2024-03-07T04:07:36;95084.75;;;8.61;100.00
7182;BME280;3632;42.724;23.298;2024-03-07T04:10:03;95138.75;;;8.98;100.00
7182;BME280;3632;42.724;23.298;2024-03-07T04:12:32;95160.91;;;8.96;100.00
7182;BME280;3632;42.724;23.298;2024-03-07T04:14:59;95106.41;;;8.54;100.00
7182;BME280;3632;42.724;23.298;2024-03-07T04:17:26;95149.69;;;8.87;100.00
7182;BME280;3632;42.724;23.298;2024-03-07T04:19:53;95031.03;;;8.19;100.00
7182;BME280;3632;42.724;23.298;2024-03-07T04:22:21;95147.47;;;8.83;100.00
7182;BME280;3632;42.724;23.298;2024-03-07T04:24:48;95152.50;;;8.95;100.00
7182;BME280;3632;42.724;23.298;2024-03-07T04:27:19;95155.91;;;8.72;100.00
7182;BME280;3632;42.724;23.298;2024-03-07T04:29:46;95067.66;;;8.28;100.00
7182;BME280;3632;42.724;23.298;2024-03-07T04:32:14;95156.84;;;8.82;100.00
7182;BME280;3632;42.724;23.298;2024-03-07T04:34:42;95136.41;;;8.49;100.00
7182;BME280;3632;42.724;23.298;2024-03-07T04:37:09;95159.44;;;8.58;100.00
7182;BME280;3632;42.724;23.298;2024-03-07T04:39:38;95149.13;;;8.25;100.00
7182;BME280;3632;42.724;23.298;2024-03-07T04:42:05;95146.53;;;8.14;100.00
7182;BME280;3632;42.724;23.298;2024-03-07T04:44:33;95117.41;;;8.07;100.00
7182;BME280;3632;42.724;23.298;2024-03-07T04:47:02;95151.63;;;8.14;100.00
7182;BME280;3632;42.724;23.298;2024-03-07T04:49:30;95059.41;;;7.55;100.00
7182;BME280;3632;42.724;23.298;2024-03-07T04:51:59;95162.69;;;8.13;100.00
7182;BME280;3632;42.724;23.298;2024-03-07T04:54:27;95035.56;;;7.21;100.00
7182;BME280;3632;42.724;23.298;2024-03-07T04:56:56;95164.13;;;7.80;100.00
7182;BME280;3632;42.724;23.298;2024-03-07T04:59:22;95148.31;;;7.64;100.00
7182;BME280;3632;42.724;23.298;2024-03-07T05:01:50;95162.53;;;7.67;100.00
7182;BME280;3632;42.724;23.298;2024-03-07T05:04:17;95176.09;;;7.78;100.00
7182;BME280;3632;42.724;23.298;2024-03-07T05:06:44;95145.22;;;7.48;100.00
7182;BME280;3632;42.724;23.298;2024-03-07T05:09:13;94986.59;;;6.84;100.00
7182;BME280;3632;42.724;23.298;2024-03-07T05:11:49;95100.94;;;7.65;100.00
7182;BME280;3632;42.724;23.298;2024-03-07T05:14:18;95174.97;;;8.06;100.00
7182;BME280;3632;42.724;23.298;2024-03-07T05:16:45;95173.97;;;8.09;100.00
7182;BME280;3632;42.724;23.298;2024-03-07T05:19:27;95175.69;;;8.08;100.00
7182;BME280;3632;42.724;23.298;2024-03-07T05:21:54;95050.63;;;7.35;100.00
7182;BME280;3632;42.724;23.298;2024-03-07T05:24:21;95178.28;;;8.19;100.00
7182;BME280;3632;42.724;23.298;2024-03-07T05:26:48;95133.59;;;8.06;100.00
7182;BME280;3632;42.724;23.298;2024-03-07T05:29:14;95189.06;;;8.47;100.00
7182;BME280;3632;42.724;23.298;2024-03-07T05:31:44;95013.19;;;6.28;100.00
7182;BME280;3632;42.724;23.298;2024-03-07T05:34:12;95203.44;;;7.99;100.00
7182;BME280;3632;42.724;23.298;2024-03-07T05:36:40;95057.72;;;7.30;100.00
7182;BME280;3632;42.724;23.298;2024-03-07T05:39:10;95091.03;;;7.25;100.00
7182;BME280;3632;42.724;23.298;2024-03-07T05:41:37;95193.84;;;8.15;100.00
7182;BME280;3632;42.724;23.298;2024-03-07T05:44:04;95153.28;;;8.02;100.00
7182;BME280;3632;42.724;23.298;2024-03-07T05:46:35;95144.19;;;7.87;100.00
7182;BME280;3632;42.724;23.298;2024-03-07T05:49:07;95197.22;;;7.66;100.00
7182;BME280;3632;42.724;23.298;2024-03-07T05:51:34;95063.97;;;7.13;100.00
7182;BME280;3632;42.724;23.298;2024-03-07T05:54:01;95141.69;;;7.38;100.00
7182;BME280;3632;42.724;23.298;2024-03-07T05:56:32;95091.03;;;6.87;100.00
7182;BME280;3632;42.724;23.298;2024-03-07T05:59:01;95207.63;;;7.38;100.00
7182;BME280;3632;42.724;23.298;2024-03-07T06:01:29;95197.34;;;7.40;100.00
7182;BME280;3632;42.724;23.298;2024-03-07T06:03:58;95094.22;;;6.91;100.00
7182;BME280;3632;42.724;23.298;2024-03-07T06:06:26;95205.75;;;7.65;100.00
7182;BME280;3632;42.724;23.298;2024-03-07T06:08:53;95210.53;;;7.94;100.00
7182;BME280;3632;42.724;23.298;2024-03-07T06:11:20;95177.91;;;7.27;100.00
7182;BME280;3632;42.724;23.298;2024-03-07T06:13:47;95208.91;;;7.56;100.00
7182;BME280;3632;42.724;23.298;2024-03-07T06:16:13;95220.63;;;7.82;100.00
7182;BME280;3632;42.724;23.298;2024-03-07T06:18:41;95238.13;;;7.24;100.00
7182;BME280;3632;42.724;23.298;2024-03-07T06:21:07;95228.44;;;7.92;100.00
7182;BME280;3632;42.724;23.298;2024-03-07T06:23:36;95232.56;;;8.06;100.00
7182;BME280;3632;42.724;23.298;2024-03-07T06:26:03;95132.84;;;7.44;100.00
7182;BME280;3632;42.724;23.298;2024-03-07T06:28:38;95234.19;;;8.43;100.00
7182;BME280;3632;42.724;23.298;2024-03-07T06:31:05;95233.69;;;8.38;100.00
7182;BME280;3632;42.724;23.298;2024-03-07T06:33:33;95115.53;;;7.74;100.00
7182;BME280;3632;42.724;23.298;2024-03-07T06:36:00;95235.69;;;8.69;100.00
7182;BME280;3632;42.724;23.298;2024-03-07T06:38:27;95226.13;;;8.49;100.00
7182;BME280;3632;42.724;23.298;2024-03-07T06:40:55;95146.63;;;8.12;100.00
7182;BME280;3632;42.724;23.298;2024-03-07T06:43:22;95114.78;;;8.08;100.00
7182;BME280;3632;42.724;23.298;2024-03-07T06:45:49;95219.19;;;8.75;100.00
7182;BME280;3632;42.724;23.298;2024-03-07T06:48:15;95225.13;;;8.87;100.00
7182;BME280;3632;42.724;23.298;2024-03-07T06:50:43;95240.63;;;8.60;100.00
7182;BME280;3632;42.724;23.298;2024-03-07T06:53:10;95219.31;;;8.50;100.00
7182;BME280;3632;42.724;23.298;2024-03-07T06:55:36;95230.72;;;8.68;100.00
7182;BME280;3632;42.724;23.298;2024-03-07T06:58:05;95251.06;;;8.44;100.00
7182;BME280;3632;42.724;23.298;2024-03-07T07:00:31;95236.19;;;8.14;100.00
7182;BME280;3632;42.724;23.298;2024-03-07T07:03:00;95235.28;;;8.03;100.00
7182;BME280;3632;42.724;23.298;2024-03-07T07:05:30;95180.41;;;8.02;100.00
7182;BME280;3632;42.724;23.298;2024-03-07T07:07:57;95203.78;;;7.81;100.00
7182;BME280;3632;42.724;23.298;2024-03-07T07:10:23;95186.84;;;7.82;100.00
7182;BME280;3632;42.724;23.298;2024-03-07T07:12:50;95215.50;;;8.44;100.00
7182;BME280;3632;42.724;23.298;2024-03-07T07:15:21;95027.38;;;7.65;99.90
7182;BME280;3632;42.724;23.298;2024-03-07T07:17:49;95219.69;;;8.91;97.63
7182;BME280;3632;42.724;23.298;2024-03-07T07:20:16;95199.31;;;9.26;97.12
7182;BME280;3632;42.724;23.298;2024-03-07T07:22:44;95141.75;;;9.03;96.54
7182;BME280;3632;42.724;23.298;2024-03-07T07:25:12;95222.00;;;9.51;97.22
7182;BME280;3632;42.724;23.298;2024-03-07T07:27:44;95059.34;;;8.72;96.14
7182;BME280;3632;42.724;23.298;2024-03-07T07:30:12;95226.06;;;9.87;94.17
7182;BME280;3632;42.724;23.298;2024-03-07T07:32:41;95049.97;;;8.50;92.23
7182;BME280;3632;42.724;23.298;2024-03-07T07:35:08;95177.38;;;9.58;91.24
7182;BME280;3632;42.724;23.298;2024-03-07T07:37:37;95215.28;;;10.06;90.66
7182;BME280;3632;42.724;23.298;2024-03-07T07:40:05;95210.88;;;10.19;90.40
7182;BME280;3632;42.724;23.298;2024-03-07T07:42:34;95170.19;;;9.75;91.59
7182;BME280;3632;42.724;23.298;2024-03-07T07:45:05;95214.03;;;10.00;93.62
7182;BME280;3632;42.724;23.298;2024-03-07T07:47:32;95166.69;;;9.98;92.42
7182;BME280;3632;42.724;23.298;2024-03-07T07:50:05;95193.50;;;10.13;91.61
7182;BME280;3632;42.724;23.298;2024-03-07T07:52:40;95211.78;;;10.29;89.93
7182;BME280;3632;42.724;23.298;2024-03-07T07:55:07;95211.16;;;9.83;92.32
7182;BME280;3632;42.724;23.298;2024-03-07T07:57:40;95175.75;;;9.46;93.18
7182;BME280;3632;42.724;23.298;2024-03-07T08:00:08;95204.19;;;9.85;94.04
7182;BME280;3632;42.724;23.298;2024-03-07T08:02:35;95208.38;;;9.75;93.67
7182;BME280;3632;42.724;23.298;2024-03-07T08:05:04;95216.00;;;9.75;94.48
7182;BME280;3632;42.724;23.298;2024-03-07T08:07:30;95158.53;;;9.50;94.85
7182;BME280;3632;42.724;23.298;2024-03-07T08:09:58;95217.25;;;10.14;94.57
7182;BME280;3632;42.724;23.298;2024-03-07T08:12:25;95215.72;;;10.11;93.86
7182;BME280;3632;42.724;23.298;2024-03-07T08:14:52;95220.47;;;9.38;94.24
7182;BME280;3632;42.724;23.298;2024-03-07T08:17:19;95227.22;;;8.93;94.75
7182;BME280;3632;42.724;23.298;2024-03-07T08:19:48;95187.22;;;8.84;96.29
7182;BME280;3632;42.724;23.298;2024-03-07T08:22:16;95232.28;;;9.28;97.14
7182;BME280;3632;42.724;23.298;2024-03-07T08:24:44;95234.72;;;9.29;96.92
7182;BME280;3632;42.724;23.298;2024-03-07T08:27:11;95262.41;;;9.67;94.96
7182;BME280;3632;42.724;23.298;2024-03-07T08:29:38;95250.22;;;9.48;93.93
7182;BME280;3632;42.724;23.298;2024-03-07T08:32:06;95118.41;;;8.98;93.28
7182;BME280;3632;42.724;23.298;2024-03-07T08:34:33;95212.16;;;9.47;92.21
7182;BME280;3632;42.724;23.298;2024-03-07T08:36:59;95288.78;;;9.88;92.02
7182;BME280;3632;42.724;23.298;2024-03-07T08:39:30;95255.09;;;9.85;93.22
7182;BME280;3632;42.724;23.298;2024-03-07T08:41:57;95258.56;;;10.06;92.55
7182;BME280;3632;42.724;23.298;2024-03-07T08:44:24;95280.47;;;10.31;91.18
7182;BME280;3632;42.724;23.298;2024-03-07T08:46:51;95278.69;;;10.42;89.83
7182;BME280;3632;42.724;23.298;2024-03-07T08:49:18;95261.75;;;10.52;88.44
7182;BME280;3632;42.724;23.298;2024-03-07T08:51:45;95267.00;;;10.06;88.59
7182;BME280;3632;42.724;23.298;2024-03-07T08:54:12;95267.38;;;10.13;89.44
7182;BME280;3632;42.724;23.298;2024-03-07T08:56:41;95270.47;;;10.28;89.00
7182;BME280;3632;42.724;23.298;2024-03-07T08:59:07;95271.66;;;10.13;91.26
7182;BME280;3632;42.724;23.298;2024-03-07T09:01:40;95266.19;;;10.06;91.47
7182;BME280;3632;42.724;23.298;2024-03-07T09:04:08;95236.00;;;9.90;91.35
7182;BME280;3632;42.724;23.298;2024-03-07T09:06:35;95103.41;;;9.28;90.50
7182;BME280;3632;42.724;23.298;2024-03-07T09:09:02;95085.91;;;8.79;88.83
7182;BME280;3632;42.724;23.298;2024-03-07T09:11:29;95186.63;;;10.36;87.53
7182;BME280;3632;42.724;23.298;2024-03-07T09:13:57;95295.59;;;10.32;87.92
7182;BME280;3632;42.724;23.298;2024-03-07T09:16:23;95278.25;;;10.04;89.15
7182;BME280;3632;42.724;23.298;2024-03-07T09:18:50;95178.66;;;9.42;88.79
7182;BME280;3632;42.724;23.298;2024-03-07T09:21:17;95282.19;;;10.19;88.86
7182;BME280;3632;42.724;23.298;2024-03-07T09:23:44;95212.88;;;9.82;87.60
7182;BME280;3632;42.724;23.298;2024-03-07T09:26:10;95128.13;;;9.48;86.82
7182;BME280;3632;42.724;23.298;2024-03-07T09:28:37;95258.53;;;10.50;86.29
7182;BME280;3632;42.724;23.298;2024-03-07T09:31:06;95277.34;;;10.70;87.60
7182;BME280;3632;42.724;23.298;2024-03-07T09:33:33;95125.69;;;10.12;86.29
7182;BME280;3632;42.724;23.298;2024-03-07T09:36:00;95238.78;;;10.64;86.09
7182;BME280;3632;42.724;23.298;2024-03-07T09:38:27;95281.25;;;10.42;84.51
7182;BME280;3632;42.724;23.298;2024-03-07T09:40:54;95279.13;;;10.59;84.35
7182;BME280;3632;42.724;23.298;2024-03-07T09:43:21;95220.34;;;10.28;85.83
7182;BME280;3632;42.724;23.298;2024-03-07T09:45:49;95282.13;;;10.64;86.39
7182;BME280;3632;42.724;23.298;2024-03-07T09:48:17;95274.78;;;10.81;84.81
7182;BME280;3632;42.724;23.298;2024-03-07T09:50:46;95270.56;;;10.60;85.56
7182;BME280;3632;42.724;23.298;2024-03-07T09:53:15;95278.00;;;10.51;87.27
7182;BME280;3632;42.724;23.298;2024-03-07T09:55:42;95235.44;;;10.09;86.70
7182;BME280;3632;42.724;23.298;2024-03-07T09:58:10;95228.25;;;9.81;86.31
7182;BME280;3632;42.724;23.298;2024-03-07T10:00:39;95266.53;;;10.46;88.21
7182;BME280;3632;42.724;23.298;2024-03-07T10:03:08;95173.09;;;9.48;86.91
7182;BME280;3632;42.724;23.298;2024-03-07T10:05:39;95278.75;;;10.95;86.72
7182;BME280;3632;42.724;23.298;2024-03-07T10:08:07;95251.22;;;11.30;86.25
7182;BME280;3632;42.724;23.298;2024-03-07T10:10:33;95239.00;;;11.55;86.17
7182;BME280;3632;42.724;23.298;2024-03-07T10:13:00;95245.16;;;12.03;84.02
7182;BME280;3632;42.724;23.298;2024-03-07T10:15:28;95237.09;;;12.57;82.57
7182;BME280;3632;42.724;23.298;2024-03-07T10:17:55;95237.72;;;12.40;78.54
7182;BME280;3632;42.724;23.298;2024-03-07T10:20:22;95200.31;;;12.20;78.83
7182;BME280;3632;42.724;23.298;2024-03-07T10:22:51;95239.53;;;12.97;77.42
7182;BME280;3632;42.724;23.298;2024-03-07T10:25:18;95240.59;;;12.95;77.41
7182;BME280;3632;42.724;23.298;2024-03-07T10:27:47;95232.66;;;13.07;77.68
7182;BME280;3632;42.724;23.298;2024-03-07T10:30:14;95234.28;;;13.27;73.71
7182;BME280;3632;42.724;23.298;2024-03-07T10:32:46;95244.34;;;13.48;73.51
7182;BME280;3632;42.724;23.298;2024-03-07T10:35:12;95242.22;;;13.34;75.48
7182;BME280;3632;42.724;23.298;2024-03-07T10:37:40;95244.78;;;13.24;75.91
7182;BME280;3632;42.724;23.298;2024-03-07T10:40:11;95224.19;;;13.26;73.08
7182;BME280;3632;42.724;23.298;2024-03-07T10:42:46;95245.19;;;13.30;74.86
7182;BME280;3632;42.724;23.298;2024-03-07T10:45:17;95227.66;;;13.81;73.09
7182;BME280;3632;42.724;23.298;2024-03-07T10:47:50;95233.66;;;13.62;73.96
7182;BME280;3632;42.724;23.298;2024-03-07T10:50:22;95228.28;;;13.93;71.89
7182;BME280;3632;42.724;23.298;2024-03-07T10:52:57;95199.09;;;13.76;72.26
7182;BME280;3632;42.724;23.298;2024-03-07T10:55:34;95223.78;;;13.77;71.56
7182;BME280;3632;42.724;23.298;2024-03-07T10:58:09;95241.56;;;13.32;73.38
7182;BME280;3632;42.724;23.298;2024-03-07T11:00:42;95220.50;;;13.48;73.49
7182;BME280;3632;42.724;23.298;2024-03-07T11:03:11;95215.56;;;12.98;73.53
7182;BME280;3632;42.724;23.298;2024-03-07T11:05:39;95117.72;;;12.58;73.73
7182;BME280;3632;42.724;23.298;2024-03-07T11:08:09;95213.81;;;13.27;74.28
7182;BME280;3632;42.724;23.298;2024-03-07T11:10:39;95215.97;;;12.55;75.13
7182;BME280;3632;42.724;23.298;2024-03-07T11:13:08;95203.38;;;12.04;73.86
7182;BME280;3632;42.724;23.298;2024-03-07T11:15:40;95179.41;;;11.65;77.03
7182;BME280;3632;42.724;23.298;2024-03-07T11:18:08;95201.13;;;11.80;76.70
7182;BME280;3632;42.724;23.298;2024-03-07T11:20:39;95204.31;;;11.73;76.88
7182;BME280;3632;42.724;23.298;2024-03-07T11:23:27;95202.66;;;11.41;80.33
7182;BME280;3632;42.724;23.298;2024-03-07T11:26:02;95194.53;;;11.78;78.23
7182;BME280;3632;42.724;23.298;2024-03-07T11:28:33;95192.84;;;11.67;79.09
7182;BME280;3632;42.724;23.298;2024-03-07T11:31:13;95191.88;;;11.79;80.68
7182;BME280;3632;42.724;23.298;2024-03-07T11:33:40;95092.44;;;11.48;80.69
7182;BME280;3632;42.724;23.298;2024-03-07T11:36:09;95191.16;;;12.17;77.16
7182;BME280;3632;42.724;23.298;2024-03-07T11:38:37;95141.41;;;12.12;77.72
7182;BME280;3632;42.724;23.298;2024-03-07T11:41:05;95157.44;;;12.33;78.13
7182;BME280;3632;42.724;23.298;2024-03-07T11:43:38;95190.38;;;12.36;76.30
7182;BME280;3632;42.724;23.298;2024-03-07T11:46:05;95183.41;;;12.67;76.35
7182;BME280;3632;42.724;23.298;2024-03-07T11:48:39;95188.25;;;12.89;75.37
7182;BME280;3632;42.724;23.298;2024-03-07T11:51:08;95193.22;;;12.43;75.67
7182;BME280;3632;42.724;23.298;2024-03-07T11:53:38;95225.22;;;12.56;76.48
7182;BME280;3632;42.724;23.298;2024-03-07T11:56:06;95037.28;;;11.66;74.68
7182;BME280;3632;42.724;23.298;2024-03-07T11:58:37;95190.59;;;12.14;76.49
7182;BME280;3632;42.724;23.298;2024-03-07T12:01:06;95194.69;;;12.26;77.73
7182;BME280;3632;42.724;23.298;2024-03-07T12:03:36;95004.75;;;11.09;75.15
7182;BME280;3632;42.724;23.298;2024-03-07T12:06:03;95181.53;;;11.90;78.83
7182;BME280;3632;42.724;23.298;2024-03-07T12:08:30;95191.88;;;11.89;77.80
7182;BME280;3632;42.724;23.298;2024-03-07T12:10:59;95189.41;;;12.08;79.33
7182;BME280;3632;42.724;23.298;2024-03-07T12:13:29;95186.53;;;12.02;79.07
7182;BME280;3632;42.724;23.298;2024-03-07T12:15:58;95187.50;;;12.10;79.07
7182;BME280;3632;42.724;23.298;2024-03-07T12:18:25;95202.16;;;12.08;79.50
7182;BME280;3632;42.724;23.298;2024-03-07T12:20:52;95010.69;;;10.79;78.48
7182;BME280;3632;42.724;23.298;2024-03-07T12:23:22;95086.19;;;11.31;80.31
7182;BME280;3632;42.724;23.298;2024-03-07T12:25:59;95144.88;;;11.61;80.40
7182;BME280;3632;42.724;23.298;2024-03-07T12:28:26;95195.97;;;11.40;81.95
7182;BME280;3632;42.724;23.298;2024-03-07T12:30:55;95148.72;;;10.74;83.69
7182;BME280;3632;42.724;23.298;2024-03-07T12:33:23;95196.47;;;11.34;82.86
7182;BME280;3632;42.724;23.298;2024-03-07T12:35:52;95098.13;;;10.90;83.48
7182;BME280;3632;42.724;23.298;2024-03-07T12:38:25;95186.72;;;11.19;84.95
7182;BME280;3632;42.724;23.298;2024-03-07T12:41:04;95083.50;;;10.30;85.94
7182;BME280;3632;42.724;23.298;2024-03-07T12:43:39;95184.00;;;11.11;83.89
7182;BME280;3632;42.724;23.298;2024-03-07T12:46:10;95185.09;;;10.97;82.73
7182;BME280;3632;42.724;23.298;2024-03-07T12:48:37;95179.31;;;11.16;82.10
7182;BME280;3632;42.724;23.298;2024-03-07T12:51:04;95173.88;;;11.30;83.26
7182;BME280;3632;42.724;23.298;2024-03-07T12:53:31;95110.09;;;10.79;82.24
7182;BME280;3632;42.724;23.298;2024-03-07T12:56:00;95177.75;;;11.55;81.21
7182;BME280;3632;42.724;23.298;2024-03-07T12:58:28;95180.31;;;11.24;81.49
7182;BME280;3632;42.724;23.298;2024-03-07T13:00:55;95010.78;;;9.74;80.59
7182;BME280;3632;42.724;23.298;2024-03-07T13:03:24;95179.47;;;10.62;83.43
7182;BME280;3632;42.724;23.298;2024-03-07T13:05:55;95193.38;;;10.69;82.73
7182;BME280;3632;42.724;23.298;2024-03-07T13:08:26;94778.63;;;8.35;82.70
7182;BME280;3632;42.724;23.298;2024-03-07T13:10:54;95201.34;;;10.96;82.34
7182;BME280;3632;42.724;23.298;2024-03-07T13:13:21;95167.63;;;10.72;81.30
7182;BME280;3632;42.724;23.298;2024-03-07T13:15:48;95103.28;;;9.95;75.72
7182;BME280;3632;42.724;23.298;2024-03-07T13:18:16;95163.03;;;9.69;75.65